Terminal Aerodrome Forecast
Issued by NWS Pocatello, ID

Home | Current Version | Previous Version | Text Only | Print | Product List | Glossary On
Versions: 1 2 3 4 5 6 7 8 9 10 11 12 13
000
FTUS45 KPIH 280500
TAFIDA
TAF
KIDA 280520Z 2806/0106 36006KT P6SM SCT080
     FM280900 02008KT P6SM SCT020 OVC040
     FM281600 02010KT P6SM FEW025 SCT080
     FM281900 02014KT P6SM SCT080=

USA.gov is the U.S. government's official web portal to all federal, state and local government web resources and services.